createdAt,value
2023-01-04T00:01:52.581Z,10.40
2023-01-04T00:04:19.311Z,9.55
2023-01-04T00:06:46.081Z,10.52
2023-01-04T00:09:12.831Z,10.32
2023-01-04T00:11:39.648Z,9.88
2023-01-04T00:14:06.263Z,9.80
2023-01-04T00:16:33.013Z,9.77
2023-01-04T00:18:59.722Z,9.82
2023-01-04T00:21:29.192Z,9.05
2023-01-04T00:23:58.483Z,9.75
2023-01-04T00:26:30.630Z,9.63
2023-01-04T00:28:59.449Z,9.32
2023-01-04T00:31:27.109Z,8.98
2023-01-04T00:33:55.271Z,8.85
2023-01-04T00:36:22.338Z,9.70
2023-01-04T00:39:07.662Z,9.55
2023-01-04T00:41:59.193Z,8.98
2023-01-04T00:44:26.656Z,9.55
2023-01-04T00:46:53.413Z,8.60
2023-01-04T00:49:20.133Z,9.48
2023-01-04T00:51:47.079Z,10.05
2023-01-04T00:54:15.345Z,8.40
2023-01-04T00:56:42.760Z,9.32
2023-01-04T00:59:12.208Z,9.52
2023-01-04T01:01:39.974Z,9.20
2023-01-04T01:04:07.369Z,9.85
2023-01-04T01:06:34.570Z,9.20
2023-01-04T01:09:01.650Z,10.05
2023-01-04T01:11:29.928Z,8.82
2023-01-04T01:13:58.233Z,9.20
2023-01-04T01:16:53.217Z,10.13
2023-01-04T01:19:13.838Z,9.48
2023-01-04T01:21:40.565Z,9.90
2023-01-04T01:24:07.766Z,9.68
2023-01-04T01:26:34.850Z,9.88
2023-01-04T01:29:01.664Z,9.43
2023-01-04T01:31:29.222Z,10.15
2023-01-04T01:33:57.387Z,10.75
2023-01-04T01:36:26.630Z,9.43
2023-01-04T01:38:54.533Z,9.98
2023-01-04T01:41:27.331Z,10.90
2023-01-04T01:44:02.308Z,10.55
2023-01-04T01:46:49.008Z,11.68
2023-01-04T01:49:37.683Z,9.70
2023-01-04T01:52:08.199Z,10.18
2023-01-04T01:54:41.847Z,10.32
2023-01-04T01:57:13.503Z,10.40
2023-01-04T01:59:44.406Z,11.23
2023-01-04T02:02:12.191Z,10.23
2023-01-04T02:04:43.485Z,10.77
2023-01-04T02:07:12.338Z,11.15
2023-01-04T02:09:40.259Z,11.75
2023-01-04T02:12:14.554Z,11.40
2023-01-04T02:14:44.211Z,11.10
2023-01-04T02:17:14.469Z,11.30
2023-01-04T02:19:56.374Z,11.50
2023-01-04T02:22:45.274Z,11.18
2023-01-04T02:25:30.511Z,11.68
2023-01-04T02:28:34.634Z,12.13
2023-01-04T02:31:25.931Z,12.07
2023-01-04T02:34:08.594Z,12.68
2023-01-04T02:36:46.040Z,13.48
2023-01-04T02:39:30.661Z,11.70
2023-01-04T02:42:15.988Z,11.15
2023-01-04T02:44:53.189Z,11.70
2023-01-04T02:47:49.383Z,13.43
2023-01-04T02:50:36.401Z,11.63
2023-01-04T02:53:13.018Z,13.70
2023-01-04T02:56:03.331Z,12.57
2023-01-04T02:59:18.325Z,12.88
2023-01-04T03:02:06.337Z,13.63
2023-01-04T03:04:54.935Z,12.90
2023-01-04T03:07:27.875Z,11.95
2023-01-04T03:10:02.602Z,12.63
2023-01-04T03:12:35.527Z,12.07
2023-01-04T03:15:22.593Z,12.93
2023-01-04T03:17:59.138Z,12.20
2023-01-04T03:20:30.458Z,12.43
2023-01-04T03:23:23.286Z,11.40
2023-01-04T03:26:19.337Z,13.40
2023-01-04T03:29:06.729Z,14.15
2023-01-04T03:31:59.386Z,14.10
2023-01-04T03:37:19.945Z,12.98
2023-01-04T03:40:23.352Z,12.95
2023-01-04T03:43:14.969Z,12.50
2023-01-04T03:46:08.715Z,13.65
2023-01-04T03:48:54.428Z,13.20
2023-01-04T03:51:28.968Z,12.07
2023-01-04T03:54:04.361Z,13.45
2023-01-04T03:56:32.981Z,13.85
2023-01-04T03:59:00.361Z,12.52
2023-01-04T04:01:28.325Z,13.45
2023-01-04T04:04:13.581Z,13.05
2023-01-04T04:06:59.102Z,12.30
2023-01-04T04:09:25.830Z,13.60
2023-01-04T04:11:52.446Z,12.18
2023-01-04T04:14:19.135Z,13.10
2023-01-04T04:16:45.907Z,13.43
2023-01-04T04:19:12.763Z,14.05
2023-01-04T04:21:39.715Z,12.85
2023-01-04T04:24:06.659Z,13.18
2023-01-04T04:26:33.640Z,13.00
2023-01-04T04:29:00.261Z,12.70
2023-01-04T04:31:26.940Z,12.50
2023-01-04T04:33:53.575Z,12.50
2023-01-04T04:36:20.169Z,13.48
2023-01-04T04:38:46.843Z,13.80
2023-01-04T04:41:34.066Z,12.93
2023-01-04T04:44:00.816Z,13.07
2023-01-04T04:46:27.689Z,13.07
2023-01-04T04:48:54.601Z,14.23
2023-01-04T04:51:21.254Z,13.73
2023-01-04T04:53:49.104Z,12.90
2023-01-04T04:56:16.443Z,13.68
2023-01-04T04:58:43.098Z,13.27
2023-01-04T05:01:09.918Z,14.65
2023-01-04T05:03:36.784Z,15.45
2023-01-04T05:06:04.275Z,13.30
2023-01-04T05:08:30.975Z,15.48
2023-01-04T05:10:57.778Z,15.57
2023-01-04T05:13:24.488Z,14.98
2023-01-04T05:15:52.995Z,14.25
2023-01-04T05:18:21.092Z,15.07
2023-01-04T05:20:48.803Z,15.45
2023-01-04T05:23:16.749Z,13.93
2023-01-04T05:25:43.435Z,14.68
2023-01-04T05:28:10.729Z,14.50
2023-01-04T05:30:53.854Z,13.43
2023-01-04T05:33:24.997Z,14.80
2023-01-04T05:35:53.272Z,16.98
2023-01-04T05:38:20.725Z,15.00
2023-01-04T05:40:47.759Z,13.88
2023-01-04T05:43:14.981Z,14.32
2023-01-04T05:45:44.380Z,14.98
2023-01-04T05:48:11.157Z,15.25
2023-01-04T05:50:37.773Z,17.92
2023-01-04T05:53:06.296Z,14.23
2023-01-04T05:55:33.116Z,14.27
2023-01-04T05:58:00.301Z,13.93
2023-01-04T06:00:27.565Z,13.77
2023-01-04T06:02:55.650Z,13.40
2023-01-04T06:05:25.871Z,14.48
2023-01-04T06:07:53.056Z,14.40
2023-01-04T06:10:20.651Z,15.63
2023-01-04T06:12:48.342Z,13.52
2023-01-04T06:15:15.527Z,14.63
2023-01-04T06:17:42.337Z,13.90
2023-01-04T06:20:11.016Z,14.50
2023-01-04T06:22:38.215Z,14.65
2023-01-04T06:25:05.197Z,14.00
2023-01-04T06:27:31.963Z,15.05
2023-01-04T06:29:58.604Z,13.52
2023-01-04T06:32:25.359Z,14.35
2023-01-04T06:34:52.251Z,14.60
2023-01-04T06:37:18.983Z,14.43
2023-01-04T06:39:45.648Z,15.30
2023-01-04T06:42:32.282Z,13.60
2023-01-04T06:44:59.130Z,14.75
2023-01-04T06:47:25.960Z,13.77
2023-01-04T06:49:52.725Z,14.05
2023-01-04T06:52:19.873Z,13.45
2023-01-04T06:54:46.669Z,13.32
2023-01-04T06:57:13.312Z,13.20
2023-01-04T06:59:39.964Z,12.88
2023-01-04T07:02:07.078Z,12.68
2023-01-04T07:04:33.922Z,13.52
2023-01-04T07:07:00.603Z,12.63
2023-01-04T07:09:27.354Z,13.07
2023-01-04T07:11:53.899Z,12.77
2023-01-04T07:14:20.517Z,13.05
2023-01-04T07:16:47.612Z,12.98
2023-01-04T07:19:14.333Z,13.02
2023-01-04T07:21:41.469Z,14.13
2023-01-04T07:24:08.281Z,13.10
2023-01-04T07:26:35.396Z,14.65
2023-01-04T07:29:17.578Z,14.55
2023-01-04T07:31:46.956Z,14.15
2023-01-04T07:34:15.340Z,15.98
2023-01-04T07:36:42.055Z,14.32
2023-01-04T07:39:12.754Z,12.20
2023-01-04T07:41:41.142Z,14.20
2023-01-04T07:44:09.463Z,12.48
2023-01-04T07:46:38.327Z,11.98
2023-01-04T07:49:05.671Z,12.55
2023-01-04T07:51:33.051Z,17.08
2023-01-04T07:54:00.346Z,14.45
2023-01-04T07:56:27.198Z,12.05
2023-01-04T07:58:57.659Z,12.27
2023-01-04T08:01:25.911Z,13.63
2023-01-04T08:03:53.710Z,12.68
2023-01-04T08:06:21.919Z,11.75
2023-01-04T08:08:49.088Z,12.25
2023-01-04T08:11:22.721Z,12.63
2023-01-04T08:13:49.320Z,12.70
2023-01-04T08:16:28.453Z,12.10
2023-01-04T08:18:56.395Z,11.70
2023-01-04T08:21:23.608Z,13.02
2023-01-04T08:23:50.756Z,14.98
2023-01-04T08:26:18.091Z,11.95
2023-01-04T08:28:46.159Z,12.85
2023-01-04T08:31:21.499Z,14.23
2023-01-04T08:33:48.286Z,12.73
2023-01-04T08:36:26.712Z,12.43
2023-01-04T08:39:01.417Z,11.35
2023-01-04T08:41:56.685Z,11.73
2023-01-04T08:44:24.250Z,11.32
2023-01-04T08:46:52.412Z,12.15
2023-01-04T08:49:20.242Z,14.30
2023-01-04T08:51:47.912Z,12.35
2023-01-04T08:54:15.013Z,13.63
2023-01-04T08:56:42.914Z,13.82
2023-01-04T08:59:11.249Z,13.45
2023-01-04T09:01:39.257Z,12.43
2023-01-04T09:04:06.454Z,12.90
2023-01-04T09:06:33.565Z,11.73
2023-01-04T09:09:00.228Z,12.85
2023-01-04T09:11:27.563Z,11.02
2023-01-04T09:14:04.365Z,10.60
2023-01-04T09:16:35.824Z,10.68
2023-01-04T09:19:02.624Z,11.40
2023-01-04T09:21:29.413Z,9.75
2023-01-04T09:23:59.066Z,8.75
2023-01-04T09:26:26.056Z,9.88
2023-01-04T09:28:54.649Z,10.25
2023-01-04T09:31:26.856Z,10.02
2023-01-04T09:36:41.492Z,10.30
2023-01-04T09:39:13.279Z,10.68
2023-01-04T09:41:53.289Z,11.10
2023-01-04T09:45:21.817Z,11.50
2023-01-04T09:47:39.766Z,10.02
2023-01-04T09:50:27.301Z,11.82
2023-01-04T09:53:08.832Z,9.77
2023-01-04T09:55:41.290Z,9.00
2023-01-04T09:58:33.675Z,9.02
2023-01-04T10:01:10.498Z,8.07
2023-01-04T10:03:40.204Z,9.93
2023-01-04T10:06:10.756Z,9.30
2023-01-04T10:08:37.959Z,8.75
2023-01-04T10:11:32.493Z,11.50
2023-01-04T10:14:17.356Z,10.52
2023-01-04T10:17:20.255Z,10.45
2023-01-04T10:23:11.142Z,10.63
2023-01-04T10:26:08.880Z,9.75
2023-01-04T10:28:42.731Z,11.02
2023-01-04T10:31:39.338Z,10.93
2023-01-04T10:34:01.125Z,10.57
2023-01-04T10:36:33.893Z,8.52
2023-01-04T10:39:02.648Z,9.90
2023-01-04T10:41:36.848Z,8.68
2023-01-04T10:44:24.383Z,9.40
2023-01-04T10:47:15.077Z,10.35
2023-01-04T10:49:49.189Z,8.18
2023-01-04T10:52:28.244Z,10.40
2023-01-04T10:56:23.064Z,9.30
2023-01-04T10:58:39.275Z,8.77
2023-01-04T11:01:30.027Z,10.77
2023-01-04T11:04:18.414Z,10.00
2023-01-04T11:06:56.129Z,9.35
2023-01-04T11:09:33.115Z,10.13
2023-01-04T11:12:02.018Z,9.90
2023-01-04T11:14:35.063Z,9.73
2023-01-04T11:17:08.072Z,10.07
2023-01-04T11:19:35.145Z,9.32
2023-01-04T11:22:12.612Z,10.77
2023-01-04T11:24:54.121Z,10.10
2023-01-04T11:27:32.229Z,9.48
2023-01-04T11:30:12.147Z,10.80
2023-01-04T11:32:50.447Z,9.73
2023-01-04T11:35:24.383Z,9.30
2023-01-04T11:37:51.159Z,8.10
2023-01-04T11:40:18.441Z,9.65
2023-01-04T11:42:47.515Z,9.52
2023-01-04T11:45:24.861Z,9.50
2023-01-04T11:47:54.917Z,9.13
2023-01-04T11:50:33.787Z,9.77
2023-01-04T11:53:01.174Z,8.52
2023-01-04T11:55:31.503Z,8.27
2023-01-04T11:58:12.861Z,8.27
2023-01-04T12:00:51.443Z,10.40
2023-01-04T12:03:28.641Z,9.57
2023-01-04T12:05:55.985Z,11.18
2023-01-04T12:08:34.898Z,9.75
2023-01-04T12:11:04.814Z,8.65
2023-01-04T12:13:35.022Z,8.90
2023-01-04T12:16:16.335Z,9.48
2023-01-04T12:18:45.369Z,10.68
2023-01-04T12:21:35.306Z,9.77
2023-01-04T12:24:06.533Z,9.98
2023-01-04T12:26:33.787Z,8.85
2023-01-04T12:29:25.119Z,12.00
2023-01-04T12:32:07.096Z,10.90
2023-01-04T12:34:34.530Z,10.15
2023-01-04T12:37:05.801Z,9.45
2023-01-04T12:39:41.444Z,9.23
2023-01-04T12:42:18.828Z,9.48
2023-01-04T12:44:51.909Z,9.25
2023-01-04T12:47:37.505Z,10.55
2023-01-04T12:50:13.166Z,9.80
2023-01-04T12:55:32.135Z,10.32
2023-01-04T12:58:03.752Z,10.45
2023-01-04T13:00:52.299Z,10.52
2023-01-04T13:03:21.602Z,10.40
2023-01-04T13:05:57.019Z,9.07
2023-01-04T13:08:24.754Z,10.70
2023-01-04T13:10:55.332Z,10.35
2023-01-04T13:13:29.314Z,10.70
2023-01-04T13:16:33.439Z,8.65
2023-01-04T13:19:03.353Z,9.02
2023-01-04T13:21:39.317Z,9.45
2023-01-04T13:24:23.669Z,9.20
2023-01-04T13:26:51.915Z,9.73
2023-01-04T13:29:26.542Z,9.93
2023-01-04T13:31:58.309Z,9.68
2023-01-04T13:34:40.319Z,8.68
2023-01-04T13:37:07.839Z,9.65
2023-01-04T13:39:38.956Z,8.82
2023-01-04T13:42:12.629Z,9.38
2023-01-04T13:45:19.750Z,9.32
2023-01-04T13:47:55.705Z,9.02
2023-01-04T13:50:22.410Z,10.02
2023-01-04T13:53:03.688Z,9.88
2023-01-04T13:55:35.850Z,8.98
2023-01-04T13:58:07.258Z,9.20
2023-01-04T14:00:45.816Z,10.90
2023-01-04T14:03:26.622Z,8.40
2023-01-04T14:06:01.331Z,9.18
2023-01-04T14:08:37.087Z,9.45
2023-01-04T14:11:47.887Z,9.50
2023-01-04T14:14:26.961Z,9.25
2023-01-04T14:17:24.245Z,9.98
2023-01-04T14:20:05.401Z,12.52
2023-01-04T14:22:37.811Z,11.18
2023-01-04T14:25:38.244Z,10.52
2023-01-04T14:28:29.855Z,11.15
2023-01-04T14:30:59.828Z,11.02
2023-01-04T14:33:39.386Z,12.20
2023-01-04T14:36:23.204Z,12.43
2023-01-04T14:39:08.205Z,11.13
2023-01-04T14:41:34.929Z,11.68
2023-01-04T14:44:01.696Z,11.45
2023-01-04T14:46:30.855Z,12.30
2023-01-04T14:48:59.139Z,12.35
2023-01-04T14:51:43.140Z,12.73
2023-01-04T14:54:12.382Z,12.52
2023-01-04T14:56:40.429Z,12.23
2023-01-04T14:59:08.069Z,12.25
2023-01-04T15:01:36.944Z,13.05
2023-01-04T15:04:05.216Z,14.50
2023-01-04T15:06:32.791Z,13.63
2023-01-04T15:08:59.582Z,13.10
2023-01-04T15:11:26.358Z,14.93
2023-01-04T15:13:53.075Z,14.60
2023-01-04T15:16:20.019Z,14.88
2023-01-04T15:18:47.225Z,15.93
2023-01-04T15:21:14.232Z,14.32
2023-01-04T15:23:41.112Z,15.07
2023-01-04T15:26:10.065Z,15.18
2023-01-04T15:28:37.759Z,16.08
2023-01-04T15:31:13.534Z,15.00
2023-01-04T15:33:40.767Z,15.73
2023-01-04T15:36:11.611Z,15.50
2023-01-04T15:38:39.784Z,14.85
2023-01-04T15:41:34.771Z,15.75
2023-01-04T15:44:02.539Z,15.05
2023-01-04T15:46:29.525Z,14.90
2023-01-04T15:48:56.342Z,14.65
2023-01-04T15:51:23.169Z,16.25
2023-01-04T15:53:52.165Z,17.25
2023-01-04T15:56:19.305Z,15.85
2023-01-04T15:58:46.912Z,16.23
2023-01-04T16:01:16.093Z,15.00
2023-01-04T16:03:44.020Z,14.68
2023-01-04T16:06:15.785Z,15.60
2023-01-04T16:08:43.770Z,15.80
2023-01-04T16:11:14.880Z,15.80
2023-01-04T16:13:42.287Z,15.38
2023-01-04T16:16:10.209Z,15.68
2023-01-04T16:18:37.815Z,16.88
2023-01-04T16:21:09.239Z,15.55
2023-01-04T16:23:37.199Z,17.13
2023-01-04T16:26:12.572Z,15.43
2023-01-04T16:28:39.731Z,15.68
2023-01-04T16:31:08.306Z,15.52
2023-01-04T16:33:35.941Z,15.32
2023-01-04T16:36:05.663Z,16.55
2023-01-04T16:38:37.013Z,15.82
2023-01-04T16:41:04.875Z,15.83
2023-01-04T16:43:32.247Z,15.52
2023-01-04T16:46:22.252Z,15.77
2023-01-04T16:49:10.863Z,14.60
2023-01-04T16:51:39.159Z,15.05
2023-01-04T16:54:08.339Z,17.40
2023-01-04T16:56:35.186Z,14.15
2023-01-04T16:59:02.591Z,16.50
2023-01-04T17:01:32.258Z,17.58
2023-01-04T17:04:01.326Z,17.92
2023-01-04T17:06:32.620Z,14.85
2023-01-04T17:09:00.690Z,15.63
2023-01-04T17:14:17.398Z,14.57
2023-01-04T17:16:44.634Z,15.80
2023-01-04T17:19:11.335Z,15.18
2023-01-04T17:21:38.046Z,15.25
2023-01-04T17:24:04.923Z,15.88
2023-01-04T17:26:32.934Z,15.85
2023-01-04T17:29:01.607Z,14.73
2023-01-04T17:31:34.561Z,15.98
2023-01-04T17:34:02.152Z,17.88
2023-01-04T17:36:28.935Z,17.80
2023-01-04T17:38:56.224Z,16.00
2023-01-04T17:41:24.843Z,15.45
2023-01-04T17:43:53.900Z,16.23
2023-01-04T17:46:24.914Z,16.63
2023-01-04T17:49:17.983Z,16.80
2023-01-04T17:51:40.306Z,17.52
2023-01-04T17:54:08.495Z,18.65
2023-01-04T17:56:37.174Z,17.13
2023-01-04T17:59:06.944Z,16.42
2023-01-04T18:01:35.125Z,15.70
2023-01-04T18:04:03.564Z,18.92
2023-01-04T18:06:34.356Z,17.83
2023-01-04T18:09:02.573Z,18.85
2023-01-04T18:11:29.552Z,18.52
2023-01-04T18:13:56.929Z,16.20
2023-01-04T18:16:26.769Z,18.50
2023-01-04T18:18:55.217Z,18.38
2023-01-04T18:21:29.272Z,17.33
2023-01-04T18:24:35.563Z,17.27
2023-01-04T18:29:35.355Z,17.88
2023-01-04T18:32:02.265Z,17.48
2023-01-04T18:34:29.177Z,16.77
2023-01-04T18:36:55.847Z,16.73
2023-01-04T18:39:22.614Z,17.98
2023-01-04T18:41:49.335Z,16.60
2023-01-04T18:44:32.648Z,18.77
2023-01-04T18:47:01.012Z,19.92
2023-01-04T18:49:27.619Z,18.25
2023-01-04T18:51:54.391Z,18.10
2023-01-04T18:54:21.853Z,18.75
2023-01-04T18:56:49.045Z,19.65
2023-01-04T18:59:18.961Z,17.60
2023-01-04T19:01:46.108Z,18.75
2023-01-04T19:04:13.741Z,18.70
2023-01-04T19:06:41.080Z,20.90
2023-01-04T19:09:08.383Z,21.00
2023-01-04T19:11:35.927Z,20.55
2023-01-04T19:14:03.262Z,18.92
2023-01-04T19:16:31.336Z,17.90
2023-01-04T19:19:00.078Z,20.17
2023-01-04T19:21:27.441Z,18.00
2023-01-04T19:23:54.358Z,20.10
2023-01-04T19:26:21.837Z,20.13
2023-01-04T19:28:49.439Z,18.88
2023-01-04T19:31:17.213Z,18.88
2023-01-04T19:33:44.103Z,18.75
2023-01-04T19:36:13.026Z,21.05
2023-01-04T19:38:40.154Z,21.02
2023-01-04T19:41:08.000Z,19.92
2023-01-04T19:43:35.556Z,19.92
2023-01-04T19:46:02.442Z,18.92
2023-01-04T19:48:31.024Z,19.98
2023-01-04T19:51:08.190Z,20.08
2023-01-04T19:53:35.262Z,19.40
2023-01-04T19:56:02.229Z,19.98
2023-01-04T19:58:29.087Z,18.23
2023-01-04T20:00:55.802Z,20.67
2023-01-04T20:03:23.806Z,18.98
2023-01-04T20:05:51.543Z,20.50
2023-01-04T20:08:18.741Z,19.67
2023-01-04T20:10:45.500Z,20.80
2023-01-04T20:13:12.327Z,20.77
2023-01-04T20:15:39.746Z,19.30
2023-01-04T20:18:13.305Z,19.95
2023-01-04T20:20:47.280Z,20.40
2023-01-04T20:23:15.327Z,19.58
2023-01-04T20:25:43.747Z,21.05
2023-01-04T20:28:10.919Z,21.15
2023-01-04T20:30:38.817Z,21.05
2023-01-04T20:33:06.436Z,21.10
2023-01-04T20:35:33.635Z,21.92
2023-01-04T20:38:00.291Z,21.00
2023-01-04T20:40:28.352Z,19.05
2023-01-04T20:43:13.709Z,18.65
2023-01-04T20:45:48.192Z,20.42
2023-01-04T20:48:15.678Z,19.23
2023-01-04T20:50:42.850Z,19.20
2023-01-04T20:53:09.968Z,20.75
2023-01-04T20:55:40.998Z,18.95
2023-01-04T20:58:09.157Z,19.10
2023-01-04T21:00:37.349Z,19.08
2023-01-04T21:03:09.412Z,21.10
2023-01-04T21:08:11.780Z,19.85
2023-01-04T21:10:43.137Z,19.67
2023-01-04T21:13:11.540Z,20.20
2023-01-04T21:15:39.192Z,21.98
2023-01-04T21:18:06.705Z,20.90
2023-01-04T21:20:33.692Z,20.60
2023-01-04T21:23:00.494Z,22.45
2023-01-04T21:25:27.317Z,21.05
2023-01-04T21:27:53.945Z,19.23
2023-01-04T21:30:21.460Z,19.08
2023-01-04T21:32:48.129Z,20.08
2023-01-04T21:35:14.915Z,19.92
2023-01-04T21:37:41.538Z,19.90
2023-01-04T21:40:08.849Z,21.98
2023-01-04T21:42:35.514Z,19.67
2023-01-04T21:45:02.333Z,20.95
2023-01-04T21:47:32.953Z,19.40
2023-01-04T21:49:59.790Z,20.23
2023-01-04T21:52:26.471Z,19.48
2023-01-04T21:54:53.250Z,17.55
2023-01-04T21:57:19.951Z,16.40
2023-01-04T21:59:46.689Z,16.85
2023-01-04T22:02:18.817Z,15.60
2023-01-04T22:07:12.777Z,16.42
2023-01-04T22:09:39.419Z,18.17
2023-01-04T22:12:06.725Z,16.55
2023-01-04T22:14:33.909Z,17.08
2023-01-04T22:17:00.981Z,18.17
2023-01-04T22:19:27.850Z,17.80
2023-01-04T22:21:54.470Z,16.77
2023-01-04T22:24:21.235Z,17.58
2023-01-04T22:26:49.420Z,18.27
2023-01-04T22:29:16.609Z,18.55
2023-01-04T22:31:43.351Z,17.70
2023-01-04T22:34:09.996Z,19.35
2023-01-04T22:36:36.631Z,18.17
2023-01-04T22:39:03.866Z,17.92
2023-01-04T22:41:30.485Z,18.02
2023-01-04T22:43:59.848Z,17.88
2023-01-04T22:46:28.607Z,17.70
2023-01-04T22:48:55.744Z,19.00
2023-01-04T22:51:24.239Z,19.80
2023-01-04T22:53:55.325Z,20.35
2023-01-04T22:56:22.984Z,19.02
2023-01-04T22:58:55.637Z,19.30
2023-01-04T23:01:25.062Z,19.90
2023-01-04T23:03:52.290Z,19.63
2023-01-04T23:06:19.662Z,19.92
2023-01-04T23:08:46.486Z,20.55
2023-01-04T23:11:18.312Z,20.48
2023-01-04T23:13:45.864Z,20.83
2023-01-04T23:16:15.133Z,21.15
2023-01-04T23:18:42.006Z,20.08
2023-01-04T23:21:09.126Z,21.25
2023-01-04T23:23:36.079Z,21.20
2023-01-04T23:26:08.767Z,21.52
2023-01-04T23:28:37.214Z,19.70
2023-01-04T23:31:06.860Z,21.63
2023-01-04T23:33:36.385Z,19.80
2023-01-04T23:36:10.967Z,20.08
2023-01-04T23:38:38.428Z,20.20
2023-01-04T23:41:05.579Z,20.38
2023-01-04T23:43:32.225Z,19.70
2023-01-04T23:45:58.932Z,20.85
2023-01-04T23:48:25.708Z,20.70
2023-01-04T23:50:56.813Z,20.35
2023-01-04T23:53:24.371Z,19.63
2023-01-04T23:56:18.598Z,19.05
2023-01-04T23:58:45.225Z,18.23
